Buoy 41936

sailwx.info

Track history (hours):
 
Tides and Currents Weather Stations Pressure Air Temp Water Temp Dewpoint Dewpoint Depression Visibility Wind Speed Wind Dir Waves Ship Positions

Drifting buoy 41936

Last reported at 2014-Oct-01 02:00 UTC. Time now 2014-Oct-01 04:14 UTC.
Position N 29°05' W 064°23'.

Barometer 1012.6 mb
Water temperature 28.3 ° C

Date/timePositionNaut miles runAvg speedWind from/ knotsBaromVisibWave heightAir tempDewpointWater temp
2014-Oct-01 02:00N 29°05' W 064°23'3 2.5 1012.6 28.3
2014-Oct-01 01:00N 29°08' W 064°22'0 0.0 1012.7 28.3
2014-Oct-01 00:00N 29°08' W 064°22'3 3.2 1012.4 28.4
2014-Sep-30 23:00N 29°07' W 064°18'0 0.1 1011.8 28.4
2014-Sep-30 22:00N 29°07' W 064°19'2 1.5 1011.4 28.5
2014-Sep-30 21:00N 29°08' W 064°19'5 2.5 1011.1 28.6
2014-Sep-30 19:00N 29°13' W 064°19'3 3.3 1011.1 29.3
2014-Sep-30 18:00N 29°10' W 064°19'3 1.7 1011.6 29.2
2014-Sep-30 16:00N 29°13' W 064°19'0 0.0 1012.3 28.6
2014-Sep-30 15:00N 29°13' W 064°19'1 1.3 1012.7 28.5
2014-Sep-30 14:00N 29°14' W 064°20'0 0.0 1012.8 28.2
2014-Sep-30 13:00N 29°14' W 064°20'1 0.4 1012.8 28.0
2014-Sep-30 11:00N 29°15' W 064°20'0 0.3 1012.3 28.0
2014-Sep-30 10:00N 29°14' W 064°20'1 0.6 1011.7 28.0
2014-Sep-30 09:00N 29°15' W 064°20'2 1.0 1011.2 28.0
2014-Sep-30 07:00N 29°16' W 064°19'0 0.1 1011.6 28.0
2014-Sep-30 02:00N 29°17' W 064°18'2 1.6 1012.6 28.0
2014-Sep-30 01:00N 29°18' W 064°18'0 0.0 1012.5 28.0
2014-Sep-30 00:00N 29°18' W 064°18'0 0.0 1012.7 28.0
2014-Sep-29 23:00N 29°18' W 064°18'1 0.6 1012.1 28.1
2014-Sep-29 21:00N 29°19' W 064°17'1 1.4 1012.0 28.1
2014-Sep-29 20:00N 29°21' W 064°17'1 0.4 1012.2 28.1
2014-Sep-29 17:00N 29°22' W 064°18'1 1.2 1012.4 28.3
2014-Sep-29 16:00N 29°23' W 064°18'1 0.8 1012.9 28.2
2014-Sep-29 15:00N 29°24' W 064°18'0 0.2 1013.0 28.1
2014-Sep-29 14:00N 29°24' W 064°18'2 0.6 1013.5 28.1
2014-Sep-29 10:00N 29°26' W 064°19'0 0.0 1012.2 28.0
2014-Sep-29 08:00N 29°26' W 064°19'1 0.7 1011.6 28.0
2014-Sep-29 07:00N 29°26' W 064°18'0 0.0 1011.7 28.0
2014-Sep-29 06:00N 29°26' W 064°18'1 0.4 1012.4 28.0
2014-Sep-29 03:00N 29°27' W 064°18'1 0.7 1013.0 28.0
2014-Sep-29 02:00N 29°28' W 064°17'0 0.0 1014.5 27.9
2014-Sep-29 01:00N 29°28' W 064°17'2 1.7 1014.9 28.1
2014-Sep-29 00:00N 29°30' W 064°17'1 0.4 1013.8 28.2
2014-Sep-28 21:00N 29°31' W 064°17'3 1.4 1013.2 28.6
2014-Sep-28 19:00N 29°33' W 064°18'0 0.0 1013.1 28.6
2014-Sep-28 17:00N 29°33' W 064°18'1 0.5 1014.0 28.4
2014-Sep-28 15:00N 29°34' W 064°19'1 0.7 1015.0 28.1
2014-Sep-28 14:00N 29°34' W 064°18'1 0.3 1015.2 28.1
2014-Sep-28 11:00N 29°35' W 064°19'1 0.7 1014.3 28.1
2014-Sep-28 10:00N 29°35' W 064°18'0 0.0 1014.1 28.1
2014-Sep-28 09:00N 29°35' W 064°18'1 1.1 1013.9 28.1
2014-Sep-28 08:00N 29°36' W 064°17'0 0.0 1013.8 28.1
2014-Sep-28 07:00N 29°36' W 064°17'0 0.0 1014.0 28.2
2014-Sep-28 06:00N 29°36' W 064°17'0 0.0 1014.3 28.3
2014-Sep-28 05:00N 29°36' W 064°17'2 0.8 1014.7 28.3
2014-Sep-28 02:00N 29°38' W 064°16'0 0.0 1015.3 28.5
2014-Sep-28 01:00N 29°38' W 064°16'2 2.1 1015.2 28.6
2014-Sep-28 00:00N 29°40' W 064°16'0 0.0 1015.0 28.7
2014-Sep-27 23:00N 29°40' W 064°16'0 0.5 1014.9 28.7
2014-Sep-27 22:00N 29°40' W 064°16'1 1.4 1014.8 28.8
2014-Sep-27 21:00N 29°41' W 064°17'0 0.2 1014.6 29.0
2014-Sep-27 20:00N 29°42' W 064°17'0 0.0 1014.8 29.2
2014-Sep-27 19:00N 29°42' W 064°17'1 0.8 1014.9 29.5
2014-Sep-27 18:00N 29°42' W 064°17'2 0.5 1015.0 29.6
2014-Sep-27 15:00N 29°43' W 064°18'0 0.5 1016.4 29.0
2014-Sep-27 14:00N 29°43' W 064°18'0 0.1 1016.3 28.5
2014-Sep-27 11:00N 29°43' W 064°18'1 0.8 1015.6 28.0
2014-Sep-27 10:00N 29°43' W 064°17'0 0.4 1015.5 28.0
2014-Sep-27 09:00N 29°43' W 064°17'1 0.8 1015.1 28.0
2014-Sep-27 08:00N 29°44' W 064°16'1 0.5 1014.8 28.0
2014-Sep-27 06:00N 29°44' W 064°15'2 0.6 1015.4 28.0
2014-Sep-27 03:00N 29°45' W 064°16'2 1.7 1016.6 28.1
2014-Sep-27 02:00N 29°47' W 064°14'1 1.4 1016.7 28.1
2014-Sep-27 01:00N 29°48' W 064°15'0 0.0 1016.7 28.1
2014-Sep-27 00:00N 29°48' W 064°15'0 0.0 1016.4 28.1
2014-Sep-26 23:00N 29°48' W 064°15'1 0.7 1016.1 28.2
2014-Sep-26 22:00N 29°49' W 064°15'0 0.2 1016.0 28.2
2014-Sep-26 21:00N 29°49' W 064°15'1 1.5 1015.8 28.3
2014-Sep-26 20:00N 29°49' W 064°17'0 0.1 1015.8 28.4
2014-Sep-26 18:00N 29°49' W 064°17'1 0.3 1016.1 28.4
2014-Sep-26 16:00N 29°49' W 064°17'1 0.6 1017.2 28.2
2014-Sep-26 15:00N 29°49' W 064°16'1 1.4 1017.7 28.1
2014-Sep-26 14:00N 29°49' W 064°15'0 0.0 1017.8 28.0
2014-Sep-26 13:00N 29°49' W 064°15'1 0.9 1017.6 28.0
2014-Sep-26 12:00N 29°49' W 064°16'0 0.0 1017.2 28.0
2014-Sep-26 11:00N 29°49' W 064°16'1 0.7 1017.0 28.0
2014-Sep-26 10:00N 29°49' W 064°15'1 0.7 1016.7 28.0
2014-Sep-26 09:00N 29°50' W 064°15'0 0.0 1016.4 28.0
2014-Sep-26 08:00N 29°50' W 064°15'0 0.0 1016.3 28.0
2014-Sep-26 06:00N 29°50' W 064°15'1 0.1 1016.9 28.1
2014-Sep-26 02:00N 29°50' W 064°14'1 0.9 1018.9 28.2
2014-Sep-26 01:00N 29°51' W 064°14'1 0.3 1019.0 28.2
2014-Sep-25 21:00N 29°52' W 064°13'1 0.2 1018.9 28.3
2014-Sep-25 18:00N 29°52' W 064°13'0 0.0 1019.7 28.3
2014-Sep-25 17:00N 29°52' W 064°13'1 0.6 1020.5 28.3
2014-Sep-25 16:00N 29°52' W 064°14'0 0.2 1021.2 28.2
2014-Sep-25 15:00N 29°53' W 064°14'1 0.9 1021.7 28.2
2014-Sep-25 14:00N 29°53' W 064°15'1 0.5 1022.0 28.2
2014-Sep-25 11:00N 29°52' W 064°14'1 0.7 1021.2 28.1
2014-Sep-25 10:00N 29°52' W 064°13'0 0.5 1021.0 28.1
2014-Sep-25 09:00N 29°52' W 064°13'0 0.0 1021.0 28.2
2014-Sep-25 08:00N 29°52' W 064°13'0 0.1 1020.9 28.2
2014-Sep-25 07:00N 29°52' W 064°13'0 0.1 1021.1 28.2
2014-Sep-25 02:00N 29°52' W 064°12'1 0.6 1023.2 28.2
2014-Sep-25 01:00N 29°52' W 064°12'0 0.0 1023.3 28.2
2014-Sep-25 00:00N 29°52' W 064°12'1 0.3 1023.2 28.2
2014-Sep-24 22:00N 29°52' W 064°11'1 0.2 1022.7 28.2
2014-Sep-24 18:00N 29°53' W 064°11'1 0.3 1022.7 28.3
2014-Sep-24 15:00N 29°53' W 064°11'0 0.4 1023.7 28.2
2014-Sep-24 14:00N 29°53' W 064°12'0 0.1 1023.6 28.2
2014-Sep-24 11:00N 29°53' W 064°12'0 0.3 1022.1 28.2
2014-Sep-24 10:00N 29°53' W 064°12'0 0.4 1021.8 28.2
2014-Sep-24 09:00N 29°52' W 064°12'1 1.0 1021.4 28.2
2014-Sep-24 08:00N 29°52' W 064°11'0 0.5 1020.6 28.2
2014-Sep-24 07:00N 29°52' W 064°11'0 0.0 1020.6 28.2
2014-Sep-24 03:00N 29°52' W 064°11'0 0.3 1021.6 28.2
2014-Sep-24 02:00N 29°52' W 064°11'0 0.5 1021.9 28.2
2014-Sep-24 01:00N 29°52' W 064°12'1 1.1 1022.0 28.2
2014-Sep-24 00:00N 29°53' W 064°11'0 0.0 1021.7 28.2
2014-Sep-23 23:00N 29°53' W 064°11'0 0.4 1021.5 28.3
2014-Sep-23 22:00N 29°52' W 064°10'1 0.7 1021.0 28.3
2014-Sep-23 21:00N 29°53' W 064°10'0 0.5 1020.7 28.4
2014-Sep-23 20:00N 29°53' W 064°10'1 0.7 1020.5 28.4
2014-Sep-23 18:00N 29°54' W 064°12'1 0.2 1020.4 28.3
2014-Sep-23 15:00N 29°54' W 064°11'1 0.8 1021.0 28.2
2014-Sep-23 14:00N 29°54' W 064°12'0 0.0 1021.2 28.2
2014-Sep-23 13:00N 29°54' W 064°12'1 0.6 1021.1 28.2
2014-Sep-23 11:00N 29°53' W 064°13'0 0.2 1020.2 28.1
2014-Sep-23 10:00N 29°53' W 064°13'0 0.2 1020.2 28.1
2014-Sep-23 09:00N 29°53' W 064°13'0 0.1 1020.2 28.1
2014-Sep-23 02:00N 29°54' W 064°13'1 0.4 1020.7 28.3
2014-Sep-22 23:00N 29°54' W 064°14'1 0.4 1020.5 28.4
2014-Sep-22 21:00N 29°55' W 064°14'2 0.7 1020.1 28.6
2014-Sep-22 18:00N 29°56' W 064°16'0 0.1 1020.2 28.7
2014-Sep-22 15:00N 29°56' W 064°16'0 0.0 1021.4 28.2
2014-Sep-22 14:00N 29°56' W 064°16'2 1.6 1021.5 28.1
2014-Sep-22 13:00N 29°55' W 064°18'0 0.1 1021.1 28.0
2014-Sep-22 11:00N 29°55' W 064°18'1 0.7 1020.1 28.0
2014-Sep-22 10:00N 29°56' W 064°18'1 0.5 1019.7 28.0
2014-Sep-22 09:00N 29°55' W 064°18'0 0.0 1019.1 28.0
2014-Sep-22 08:00N 29°55' W 064°18'0 0.3 1018.7 28.0
2014-Sep-22 07:00N 29°55' W 064°19'0 0.0 1019.1 28.0
2014-Sep-22 03:00N 29°56' W 064°19'1 1.0 1021.0 28.1
2014-Sep-22 02:00N 29°56' W 064°18'2 2.2 1021.2 28.1
2014-Sep-22 01:00N 29°57' W 064°21'0 0.0 1021.0 28.1
2014-Sep-22 00:00N 29°57' W 064°21'1 0.4 1020.9 28.1
2014-Sep-21 22:00N 29°58' W 064°21'0 0.3 1019.9 28.1
2014-Sep-21 21:00N 29°57' W 064°22'2 1.1 1019.6 28.1
2014-Sep-21 19:00N 29°58' W 064°24'1 1.0 1019.4 28.1
2014-Sep-21 18:00N 29°57' W 064°23'1 0.3 1019.9 28.1
2014-Sep-21 15:00N 29°58' W 064°24'1 0.7 1021.5 28.0
2014-Sep-21 14:00N 29°58' W 064°23'0 0.0 1021.5 28.0
2014-Sep-21 13:00N 29°58' W 064°23'3 1.5 1021.1 28.0
2014-Sep-21 11:00N 29°59' W 064°27'0 0.4 1020.3 27.9
2014-Sep-21 10:00N 29°58' W 064°27'2 0.8 1020.0 27.9
2014-Sep-21 07:00N 29°58' W 064°30'1 0.1 1019.9 27.9
2014-Sep-21 02:00N 29°59' W 064°30'   1021.1 28.1
Track history (hours):
 
Tides and Currents Weather Stations Pressure Air Temp Water Temp Dewpoint Dewpoint Depression Visibility Wind Speed Wind Dir Waves Ship Positions

Drifting buoy 41936

Last reported at 2014-Oct-01 02:00 UTC. Time now 2014-Oct-01 04:14 UTC.
Position N 29°05' W 064°23'.

Barometer 1012.6 mb
Water temperature 28.3 ° C

Date/timePositionNaut miles runAvg speedWind from/ knotsBaromVisibWave heightAir tempDewpointWater temp
2014-Oct-01 02:00N 29°05' W 064°23'3 2.5 1012.6 28.3
2014-Oct-01 01:00N 29°08' W 064°22'0 0.0 1012.7 28.3
2014-Oct-01 00:00N 29°08' W 064°22'3 3.2 1012.4 28.4
2014-Sep-30 23:00N 29°07' W 064°18'0 0.1 1011.8 28.4
2014-Sep-30 22:00N 29°07' W 064°19'2 1.5 1011.4 28.5
2014-Sep-30 21:00N 29°08' W 064°19'5 2.5 1011.1 28.6
2014-Sep-30 19:00N 29°13' W 064°19'3 3.3 1011.1 29.3
2014-Sep-30 18:00N 29°10' W 064°19'3 1.7 1011.6 29.2
2014-Sep-30 16:00N 29°13' W 064°19'0 0.0 1012.3 28.6
2014-Sep-30 15:00N 29°13' W 064°19'1 1.3 1012.7 28.5
2014-Sep-30 14:00N 29°14' W 064°20'0 0.0 1012.8 28.2
2014-Sep-30 13:00N 29°14' W 064°20'1 0.4 1012.8 28.0
2014-Sep-30 11:00N 29°15' W 064°20'0 0.3 1012.3 28.0
2014-Sep-30 10:00N 29°14' W 064°20'1 0.6 1011.7 28.0
2014-Sep-30 09:00N 29°15' W 064°20'2 1.0 1011.2 28.0
2014-Sep-30 07:00N 29°16' W 064°19'0 0.1 1011.6 28.0
2014-Sep-30 02:00N 29°17' W 064°18'2 1.6 1012.6 28.0
2014-Sep-30 01:00N 29°18' W 064°18'0 0.0 1012.5 28.0
2014-Sep-30 00:00N 29°18' W 064°18'0 0.0 1012.7 28.0
2014-Sep-29 23:00N 29°18' W 064°18'1 0.6 1012.1 28.1
2014-Sep-29 21:00N 29°19' W 064°17'1 1.4 1012.0 28.1
2014-Sep-29 20:00N 29°21' W 064°17'1 0.4 1012.2 28.1
2014-Sep-29 17:00N 29°22' W 064°18'1 1.2 1012.4 28.3
2014-Sep-29 16:00N 29°23' W 064°18'1 0.8 1012.9 28.2
2014-Sep-29 15:00N 29°24' W 064°18'0 0.2 1013.0 28.1
2014-Sep-29 14:00N 29°24' W 064°18'2 0.6 1013.5 28.1
2014-Sep-29 10:00N 29°26' W 064°19'0 0.0 1012.2 28.0
2014-Sep-29 08:00N 29°26' W 064°19'1 0.7 1011.6 28.0
2014-Sep-29 07:00N 29°26' W 064°18'0 0.0 1011.7 28.0
2014-Sep-29 06:00N 29°26' W 064°18'1 0.4 1012.4 28.0
2014-Sep-29 03:00N 29°27' W 064°18'1 0.7 1013.0 28.0
2014-Sep-29 02:00N 29°28' W 064°17'0 0.0 1014.5 27.9
2014-Sep-29 01:00N 29°28' W 064°17'2 1.7 1014.9 28.1
2014-Sep-29 00:00N 29°30' W 064°17'1 0.4 1013.8 28.2
2014-Sep-28 21:00N 29°31' W 064°17'3 1.4 1013.2 28.6
2014-Sep-28 19:00N 29°33' W 064°18'0 0.0 1013.1 28.6
2014-Sep-28 17:00N 29°33' W 064°18'1 0.5 1014.0 28.4
2014-Sep-28 15:00N 29°34' W 064°19'1 0.7 1015.0 28.1
2014-Sep-28 14:00N 29°34' W 064°18'1 0.3 1015.2 28.1
2014-Sep-28 11:00N 29°35' W 064°19'1 0.7 1014.3 28.1
2014-Sep-28 10:00N 29°35' W 064°18'0 0.0 1014.1 28.1
2014-Sep-28 09:00N 29°35' W 064°18'1 1.1 1013.9 28.1
2014-Sep-28 08:00N 29°36' W 064°17'0 0.0 1013.8 28.1
2014-Sep-28 07:00N 29°36' W 064°17'0 0.0 1014.0 28.2
2014-Sep-28 06:00N 29°36' W 064°17'0 0.0 1014.3 28.3
2014-Sep-28 05:00N 29°36' W 064°17'2 0.8 1014.7 28.3
2014-Sep-28 02:00N 29°38' W 064°16'0 0.0 1015.3 28.5
2014-Sep-28 01:00N 29°38' W 064°16'2 2.1 1015.2 28.6
2014-Sep-28 00:00N 29°40' W 064°16'0 0.0 1015.0 28.7
2014-Sep-27 23:00N 29°40' W 064°16'0 0.5 1014.9 28.7
2014-Sep-27 22:00N 29°40' W 064°16'1 1.4 1014.8 28.8
2014-Sep-27 21:00N 29°41' W 064°17'0 0.2 1014.6 29.0
2014-Sep-27 20:00N 29°42' W 064°17'0 0.0 1014.8 29.2
2014-Sep-27 19:00N 29°42' W 064°17'1 0.8 1014.9 29.5
2014-Sep-27 18:00N 29°42' W 064°17'2 0.5 1015.0 29.6
2014-Sep-27 15:00N 29°43' W 064°18'0 0.5 1016.4 29.0
2014-Sep-27 14:00N 29°43' W 064°18'0 0.1 1016.3 28.5
2014-Sep-27 11:00N 29°43' W 064°18'1 0.8 1015.6 28.0
2014-Sep-27 10:00N 29°43' W 064°17'0 0.4 1015.5 28.0
2014-Sep-27 09:00N 29°43' W 064°17'1 0.8 1015.1 28.0
2014-Sep-27 08:00N 29°44' W 064°16'1 0.5 1014.8 28.0
2014-Sep-27 06:00N 29°44' W 064°15'2 0.6 1015.4 28.0
2014-Sep-27 03:00N 29°45' W 064°16'2 1.7 1016.6 28.1
2014-Sep-27 02:00N 29°47' W 064°14'1 1.4 1016.7 28.1
2014-Sep-27 01:00N 29°48' W 064°15'0 0.0 1016.7 28.1
2014-Sep-27 00:00N 29°48' W 064°15'0 0.0 1016.4 28.1
2014-Sep-26 23:00N 29°48' W 064°15'1 0.7 1016.1 28.2
2014-Sep-26 22:00N 29°49' W 064°15'0 0.2 1016.0 28.2
2014-Sep-26 21:00N 29°49' W 064°15'1 1.5 1015.8 28.3
2014-Sep-26 20:00N 29°49' W 064°17'0 0.1 1015.8 28.4
2014-Sep-26 18:00N 29°49' W 064°17'1 0.3 1016.1 28.4
2014-Sep-26 16:00N 29°49' W 064°17'1 0.6 1017.2 28.2
2014-Sep-26 15:00N 29°49' W 064°16'1 1.4 1017.7 28.1
2014-Sep-26 14:00N 29°49' W 064°15'0 0.0 1017.8 28.0
2014-Sep-26 13:00N 29°49' W 064°15'1 0.9 1017.6 28.0
2014-Sep-26 12:00N 29°49' W 064°16'0 0.0 1017.2 28.0
2014-Sep-26 11:00N 29°49' W 064°16'1 0.7 1017.0 28.0
2014-Sep-26 10:00N 29°49' W 064°15'1 0.7 1016.7 28.0
2014-Sep-26 09:00N 29°50' W 064°15'0 0.0 1016.4 28.0
2014-Sep-26 08:00N 29°50' W 064°15'0 0.0 1016.3 28.0
2014-Sep-26 06:00N 29°50' W 064°15'1 0.1 1016.9 28.1
2014-Sep-26 02:00N 29°50' W 064°14'1 0.9 1018.9 28.2
2014-Sep-26 01:00N 29°51' W 064°14'1 0.3 1019.0 28.2
2014-Sep-25 21:00N 29°52' W 064°13'1 0.2 1018.9 28.3
2014-Sep-25 18:00N 29°52' W 064°13'0 0.0 1019.7 28.3
2014-Sep-25 17:00N 29°52' W 064°13'1 0.6 1020.5 28.3
2014-Sep-25 16:00N 29°52' W 064°14'0 0.2 1021.2 28.2
2014-Sep-25 15:00N 29°53' W 064°14'1 0.9 1021.7 28.2
2014-Sep-25 14:00N 29°53' W 064°15'1 0.5 1022.0 28.2
2014-Sep-25 11:00N 29°52' W 064°14'1 0.7 1021.2 28.1
2014-Sep-25 10:00N 29°52' W 064°13'0 0.5 1021.0 28.1
2014-Sep-25 09:00N 29°52' W 064°13'0 0.0 1021.0 28.2
2014-Sep-25 08:00N 29°52' W 064°13'0 0.1 1020.9 28.2
2014-Sep-25 07:00N 29°52' W 064°13'0 0.1 1021.1 28.2
2014-Sep-25 02:00N 29°52' W 064°12'1 0.6 1023.2 28.2
2014-Sep-25 01:00N 29°52' W 064°12'0 0.0 1023.3 28.2
2014-Sep-25 00:00N 29°52' W 064°12'1 0.3 1023.2 28.2
2014-Sep-24 22:00N 29°52' W 064°11'1 0.2 1022.7 28.2
2014-Sep-24 18:00N 29°53' W 064°11'1 0.3 1022.7 28.3
2014-Sep-24 15:00N 29°53' W 064°11'0 0.4 1023.7 28.2
2014-Sep-24 14:00N 29°53' W 064°12'0 0.1 1023.6 28.2
2014-Sep-24 11:00N 29°53' W 064°12'0 0.3 1022.1 28.2
2014-Sep-24 10:00N 29°53' W 064°12'0 0.4 1021.8 28.2
2014-Sep-24 09:00N 29°52' W 064°12'1 1.0 1021.4 28.2
2014-Sep-24 08:00N 29°52' W 064°11'0 0.5 1020.6 28.2
2014-Sep-24 07:00N 29°52' W 064°11'0 0.0 1020.6 28.2
2014-Sep-24 03:00N 29°52' W 064°11'0 0.3 1021.6 28.2
2014-Sep-24 02:00N 29°52' W 064°11'0 0.5 1021.9 28.2
2014-Sep-24 01:00N 29°52' W 064°12'1 1.1 1022.0 28.2
2014-Sep-24 00:00N 29°53' W 064°11'0 0.0 1021.7 28.2
2014-Sep-23 23:00N 29°53' W 064°11'0 0.4 1021.5 28.3
2014-Sep-23 22:00N 29°52' W 064°10'1 0.7 1021.0 28.3
2014-Sep-23 21:00N 29°53' W 064°10'0 0.5 1020.7 28.4
2014-Sep-23 20:00N 29°53' W 064°10'1 0.7 1020.5 28.4
2014-Sep-23 18:00N 29°54' W 064°12'1 0.2 1020.4 28.3
2014-Sep-23 15:00N 29°54' W 064°11'1 0.8 1021.0 28.2
2014-Sep-23 14:00N 29°54' W 064°12'0 0.0 1021.2 28.2
2014-Sep-23 13:00N 29°54' W 064°12'1 0.6 1021.1 28.2
2014-Sep-23 11:00N 29°53' W 064°13'0 0.2 1020.2 28.1
2014-Sep-23 10:00N 29°53' W 064°13'0 0.2 1020.2 28.1
2014-Sep-23 09:00N 29°53' W 064°13'0 0.1 1020.2 28.1
2014-Sep-23 02:00N 29°54' W 064°13'1 0.4 1020.7 28.3
2014-Sep-22 23:00N 29°54' W 064°14'1 0.4 1020.5 28.4
2014-Sep-22 21:00N 29°55' W 064°14'2 0.7 1020.1 28.6
2014-Sep-22 18:00N 29°56' W 064°16'0 0.1 1020.2 28.7
2014-Sep-22 15:00N 29°56' W 064°16'0 0.0 1021.4 28.2
2014-Sep-22 14:00N 29°56' W 064°16'2 1.6 1021.5 28.1
2014-Sep-22 13:00N 29°55' W 064°18'0 0.1 1021.1 28.0
2014-Sep-22 11:00N 29°55' W 064°18'1 0.7 1020.1 28.0
2014-Sep-22 10:00N 29°56' W 064°18'1 0.5 1019.7 28.0
2014-Sep-22 09:00N 29°55' W 064°18'0 0.0 1019.1 28.0
2014-Sep-22 08:00N 29°55' W 064°18'0 0.3 1018.7 28.0
2014-Sep-22 07:00N 29°55' W 064°19'0 0.0 1019.1 28.0
2014-Sep-22 03:00N 29°56' W 064°19'1 1.0 1021.0 28.1
2014-Sep-22 02:00N 29°56' W 064°18'2 2.2 1021.2 28.1
2014-Sep-22 01:00N 29°57' W 064°21'0 0.0 1021.0 28.1
2014-Sep-22 00:00N 29°57' W 064°21'1 0.4 1020.9 28.1
2014-Sep-21 22:00N 29°58' W 064°21'0 0.3 1019.9 28.1
2014-Sep-21 21:00N 29°57' W 064°22'2 1.1 1019.6 28.1
2014-Sep-21 19:00N 29°58' W 064°24'1 1.0 1019.4 28.1
2014-Sep-21 18:00N 29°57' W 064°23'1 0.3 1019.9 28.1
2014-Sep-21 15:00N 29°58' W 064°24'1 0.7 1021.5 28.0
2014-Sep-21 14:00N 29°58' W 064°23'0 0.0 1021.5 28.0
2014-Sep-21 13:00N 29°58' W 064°23'3 1.5 1021.1 28.0
2014-Sep-21 11:00N 29°59' W 064°27'0 0.4 1020.3 27.9
2014-Sep-21 10:00N 29°58' W 064°27'2 0.8 1020.0 27.9
2014-Sep-21 07:00N 29°58' W 064°30'1 0.1 1019.9 27.9
2014-Sep-21 02:00N 29°59' W 064°30'   1021.1 28.1

Dump ship's entire track history